FWI570 LFPO-SOCA
Flight info
| Callsign | FWI570 |
|---|---|
| Flight time | N/A |
| Altitude | 35000 |
| Route | LGL UT176 ROLEN UZ15 DIDAK DCT AKEMO DCT LAPEX/M083F340 DCT SEPAL DCT 45N015W 40N024W/M083F360 35N030W 30N036W 25N040W/M083F380 20N044W DCT ROHPL/N0482F380 DCT MOTSI DCT MEBLI DCT REKIM REKIM1E |
| Aircraft | A339/H-SADE1E2E3GHIJ3J5M1P2RWXY/LB2D1 |
Departure
| Time | N/A |
|---|---|
| Airport | Paris-Orly Airport (LFPO) |
Arrival
| Time | 2026-04-15 11:22 |
|---|---|
| Airport | Cayenne – Félix Eboué Airport (SOCA) |
| Time | Latitude | Longitude | Altitude | Speed | Heading |
|---|---|---|---|---|---|
| 2026-04-15 10:26 | 8.46830 | -50.25884 | 4868 ft | 306 kts | 210° |
| 2026-04-15 10:26 | 8.45105 | -50.27061 | 4546 ft | 293 kts | 211° |
| 2026-04-15 10:27 | 8.43462 | -50.28203 | 4226 ft | 280 kts | 210° |
| 2026-04-15 10:27 | 8.41834 | -50.29352 | 3959 ft | 303 kts | 211° |
| 2026-04-15 10:27 | 8.39998 | -50.30657 | 3713 ft | 341 kts | 212° |
| 2026-04-15 10:27 | 8.37961 | -50.32101 | 3456 ft | 373 kts | 212° |
| 2026-04-15 10:28 | 8.35839 | -50.33605 | 4289 ft | 364 kts | 211° |
| 2026-04-15 10:28 | 8.33757 | -50.35076 | 4961 ft | 365 kts | 212° |
| 2026-04-15 10:28 | 8.31674 | -50.36545 | 5642 ft | 364 kts | 211° |
| 2026-04-15 10:28 | 8.29621 | -50.37985 | 6308 ft | 363 kts | 211° |
| 2026-04-15 10:29 | 8.27551 | -50.39434 | 6879 ft | 365 kts | 211° |
| 2026-04-15 10:29 | 8.25401 | -50.40935 | 6824 ft | 386 kts | 212° |
| 2026-04-15 10:29 | 8.23188 | -50.42474 | 7471 ft | 379 kts | 211° |
| 2026-04-15 10:29 | 8.20972 | -50.43984 | 7685 ft | 391 kts | 211° |
| 2026-04-15 10:30 | 8.18715 | -50.45560 | 8154 ft | 386 kts | 213° |
| 2026-04-15 10:30 | 8.16549 | -50.47145 | 8678 ft | 393 kts | 214° |
| 2026-04-15 10:30 | 8.14317 | -50.48831 | 8934 ft | 399 kts | 214° |
| 2026-04-15 10:30 | 8.12162 | -50.50487 | 9163 ft | 377 kts | 214° |
| 2026-04-15 10:31 | 8.10121 | -50.52028 | 8984 ft | 354 kts | 213° |
| 2026-04-15 10:31 | 8.08186 | -50.53454 | 8750 ft | 335 kts | 213° |
| 2026-04-15 10:31 | 8.06338 | -50.54783 | 8515 ft | 319 kts | 211° |
| 2026-04-15 10:31 | 8.04560 | -50.56038 | 8227 ft | 306 kts | 211° |
| 2026-04-15 10:32 | 8.02836 | -50.57243 | 7898 ft | 297 kts | 211° |
| 2026-04-15 10:32 | 8.01154 | -50.58415 | 7527 ft | 291 kts | 211° |
| 2026-04-15 10:32 | 7.99515 | -50.59583 | 7153 ft | 286 kts | 212° |
| 2026-04-15 10:32 | 7.97913 | -50.60758 | 6746 ft | 283 kts | 212° |
| 2026-04-15 10:33 | 7.96374 | -50.61892 | 6632 ft | 266 kts | 211° |
| 2026-04-15 10:33 | 7.94860 | -50.62988 | 6013 ft | 272 kts | 211° |
| 2026-04-15 10:33 | 7.93315 | -50.64099 | 5456 ft | 273 kts | 211° |
| 2026-04-15 10:33 | 7.91760 | -50.65207 | 4910 ft | 273 kts | 210° |
| 2026-04-15 10:34 | 7.90206 | -50.66308 | 4385 ft | 272 kts | 211° |
| 2026-04-15 10:34 | 7.88649 | -50.67398 | 3894 ft | 269 kts | 211° |
| 2026-04-15 10:34 | 7.87154 | -50.68411 | 3866 ft | 250 kts | 210° |
| 2026-04-15 10:34 | 7.85692 | -50.69383 | 3812 ft | 266 kts | 208° |
| 2026-04-15 10:35 | 7.84095 | -50.70429 | 4127 ft | 285 kts | 208° |
| 2026-04-15 10:35 | 7.82422 | -50.71536 | 4860 ft | 284 kts | 208° |
| 2026-04-15 10:35 | 7.80773 | -50.72623 | 5585 ft | 287 kts | 209° |
| 2026-04-15 10:35 | 7.79091 | -50.73721 | 6258 ft | 289 kts | 208° |
| 2026-04-15 10:36 | 7.77384 | -50.74844 | 6731 ft | 294 kts | 209° |
| 2026-04-15 10:36 | 7.75662 | -50.75982 | 6896 ft | 296 kts | 208° |
| 2026-04-15 10:36 | 7.73953 | -50.77114 | 6924 ft | 296 kts | 208° |
| 2026-04-15 10:36 | 7.72231 | -50.78247 | 6956 ft | 294 kts | 209° |
| 2026-04-15 10:37 | 7.70508 | -50.79368 | 6963 ft | 296 kts | 209° |
| 2026-04-15 10:37 | 7.68781 | -50.80510 | 6939 ft | 297 kts | 208° |
| 2026-04-15 10:37 | 7.67053 | -50.81658 | 6958 ft | 296 kts | 209° |
| 2026-04-15 10:37 | 7.65339 | -50.82790 | 6963 ft | 294 kts | 210° |
| 2026-04-15 10:38 | 7.63633 | -50.83925 | 6934 ft | 294 kts | 210° |
| 2026-04-15 10:38 | 7.61964 | -50.85147 | 6954 ft | 296 kts | 212° |
| 2026-04-15 10:38 | 7.60312 | -50.86381 | 6959 ft | 296 kts | 211° |
| 2026-04-15 10:38 | 7.58648 | -50.87558 | 6946 ft | 295 kts | 210° |
| 2026-04-15 10:39 | 7.56945 | -50.88703 | 6956 ft | 294 kts | 209° |
| 2026-04-15 10:39 | 7.55214 | -50.89833 | 6952 ft | 296 kts | 208° |
| 2026-04-15 10:39 | 7.53481 | -50.90948 | 6949 ft | 296 kts | 208° |
| 2026-04-15 10:39 | 7.51735 | -50.92063 | 6949 ft | 295 kts | 208° |
| 2026-04-15 10:40 | 7.50000 | -50.93174 | 6950 ft | 295 kts | 208° |
| 2026-04-15 10:40 | 7.48286 | -50.94272 | 6950 ft | 296 kts | 208° |
| 2026-04-15 10:40 | 7.46550 | -50.95385 | 6948 ft | 295 kts | 208° |
| 2026-04-15 10:40 | 7.44811 | -50.96504 | 6950 ft | 296 kts | 208° |
| 2026-04-15 10:41 | 7.43075 | -50.97616 | 6948 ft | 295 kts | 207° |
| 2026-04-15 10:41 | 7.41344 | -50.98726 | 6950 ft | 294 kts | 208° |
| 2026-04-15 10:41 | 7.39610 | -50.99838 | 6947 ft | 297 kts | 208° |
| 2026-04-15 10:41 | 7.37872 | -51.00953 | 6950 ft | 296 kts | 208° |
| 2026-04-15 10:42 | 7.36134 | -51.02065 | 6955 ft | 295 kts | 208° |
| 2026-04-15 10:42 | 7.34403 | -51.03175 | 6936 ft | 294 kts | 208° |
| 2026-04-15 10:42 | 7.32694 | -51.04271 | 6953 ft | 295 kts | 208° |
| 2026-04-15 10:42 | 7.30960 | -51.05383 | 6955 ft | 295 kts | 208° |
| 2026-04-15 10:43 | 7.29220 | -51.06502 | 6948 ft | 297 kts | 208° |
| 2026-04-15 10:43 | 7.27488 | -51.07611 | 6946 ft | 294 kts | 208° |
| 2026-04-15 10:43 | 7.25757 | -51.08717 | 6955 ft | 293 kts | 209° |
| 2026-04-15 10:43 | 7.24023 | -51.09830 | 6948 ft | 297 kts | 209° |
| 2026-04-15 10:44 | 7.22277 | -51.10951 | 6948 ft | 297 kts | 208° |
| 2026-04-15 10:44 | 7.20539 | -51.12064 | 6950 ft | 294 kts | 208° |
| 2026-04-15 10:44 | 7.18810 | -51.13174 | 6931 ft | 295 kts | 208° |
| 2026-04-15 10:44 | 7.17095 | -51.14272 | 6951 ft | 296 kts | 208° |
| 2026-04-15 10:45 | 7.15356 | -51.15387 | 6948 ft | 295 kts | 208° |
| 2026-04-15 10:45 | 7.13618 | -51.16504 | 6950 ft | 296 kts | 208° |
| 2026-04-15 10:45 | 7.11885 | -51.17611 | 6950 ft | 295 kts | 208° |
| 2026-04-15 10:45 | 7.10147 | -51.18721 | 6950 ft | 296 kts | 208° |
| 2026-04-15 10:46 | 7.08416 | -51.19830 | 6946 ft | 295 kts | 209° |
| 2026-04-15 10:46 | 7.06681 | -51.20943 | 6930 ft | 297 kts | 208° |
| 2026-04-15 10:46 | 7.04941 | -51.22057 | 6946 ft | 293 kts | 208° |
| 2026-04-15 10:46 | 7.03216 | -51.23163 | 6947 ft | 293 kts | 209° |
| 2026-04-15 10:47 | 7.01518 | -51.24250 | 6946 ft | 294 kts | 208° |
| 2026-04-15 10:47 | 6.99788 | -51.25360 | 6946 ft | 295 kts | 208° |
| 2026-04-15 10:47 | 6.98050 | -51.26474 | 6948 ft | 295 kts | 208° |
| 2026-04-15 10:47 | 6.96318 | -51.27581 | 6945 ft | 295 kts | 208° |
| 2026-04-15 10:48 | 6.94589 | -51.28683 | 6944 ft | 292 kts | 209° |
| 2026-04-15 10:48 | 6.92861 | -51.29790 | 6947 ft | 295 kts | 209° |
| 2026-04-15 10:48 | 6.91129 | -51.30902 | 6944 ft | 296 kts | 208° |
| 2026-04-15 10:48 | 6.89414 | -51.31998 | 6943 ft | 294 kts | 209° |
| 2026-04-15 10:49 | 6.87688 | -51.33101 | 6943 ft | 293 kts | 209° |
| 2026-04-15 10:49 | 6.85962 | -51.34206 | 6943 ft | 293 kts | 208° |
| 2026-04-15 10:49 | 6.84237 | -51.35310 | 6950 ft | 294 kts | 208° |
| 2026-04-15 10:49 | 6.82497 | -51.36424 | 6946 ft | 296 kts | 208° |
| 2026-04-15 10:50 | 6.80767 | -51.37528 | 6942 ft | 294 kts | 208° |
| 2026-04-15 10:50 | 6.79056 | -51.38618 | 6944 ft | 294 kts | 209° |
| 2026-04-15 10:50 | 6.77330 | -51.39726 | 6942 ft | 295 kts | 209° |
| 2026-04-15 10:50 | 6.75576 | -51.40848 | 6943 ft | 294 kts | 208° |
| 2026-04-15 10:51 | 6.73865 | -51.41942 | 6940 ft | 294 kts | 208° |
| 2026-04-15 10:51 | 6.72130 | -51.43049 | 6940 ft | 294 kts | 209° |
| 2026-04-15 10:51 | 6.70408 | -51.44150 | 6943 ft | 294 kts | 208° |
| 2026-04-15 10:51 | 6.68675 | -51.45259 | 6947 ft | 295 kts | 208° |
| 2026-04-15 10:52 | 6.66937 | -51.46373 | 6941 ft | 296 kts | 208° |
| 2026-04-15 10:52 | 6.65209 | -51.47476 | 6942 ft | 293 kts | 208° |
| 2026-04-15 10:52 | 6.63479 | -51.48579 | 6943 ft | 295 kts | 208° |
| 2026-04-15 10:52 | 6.61746 | -51.49686 | 6941 ft | 295 kts | 208° |
| 2026-04-15 10:53 | 6.60031 | -51.50786 | 6941 ft | 296 kts | 208° |
| 2026-04-15 10:53 | 6.58644 | -51.51672 | 6942 ft | 295 kts | 208° |
| 2026-04-15 10:53 | 6.56922 | -51.52770 | 6948 ft | 293 kts | 208° |
| 2026-04-15 10:53 | 6.55214 | -51.53857 | 6943 ft | 294 kts | 208° |
| 2026-04-15 10:54 | 6.53458 | -51.54981 | 6940 ft | 295 kts | 209° |
| 2026-04-15 10:54 | 6.51749 | -51.56074 | 6934 ft | 294 kts | 208° |
| 2026-04-15 10:54 | 6.50018 | -51.57180 | 6938 ft | 294 kts | 208° |
| 2026-04-15 10:54 | 6.48289 | -51.58283 | 6947 ft | 293 kts | 209° |
| 2026-04-15 10:55 | 6.46556 | -51.59391 | 6942 ft | 297 kts | 208° |
| 2026-04-15 10:55 | 6.44815 | -51.60503 | 6941 ft | 297 kts | 208° |
| 2026-04-15 10:55 | 6.43070 | -51.61620 | 6938 ft | 297 kts | 209° |
| 2026-04-15 10:55 | 6.41336 | -51.62726 | 6944 ft | 294 kts | 210° |
| 2026-04-15 10:56 | 6.39621 | -51.63817 | 6933 ft | 294 kts | 210° |
| 2026-04-15 10:56 | 6.37888 | -51.64924 | 6936 ft | 295 kts | 209° |
| 2026-04-15 10:56 | 6.36136 | -51.66046 | 6971 ft | 300 kts | 208° |
| 2026-04-15 10:56 | 6.34367 | -51.67170 | 7491 ft | 299 kts | 208° |
| 2026-04-15 10:57 | 6.32615 | -51.68286 | 8140 ft | 296 kts | 210° |
| 2026-04-15 10:57 | 6.29102 | -51.70532 | 9109 ft | 304 kts | 208° |
| 2026-04-15 10:57 | 6.27304 | -51.71678 | 9600 ft | 306 kts | 209° |
| 2026-04-15 10:58 | 6.25497 | -51.72826 | 10114 ft | 308 kts | 209° |
| 2026-04-15 10:58 | 6.23639 | -51.74004 | 10262 ft | 323 kts | 209° |
| 2026-04-15 10:58 | 6.21722 | -51.75227 | 10398 ft | 338 kts | 209° |
| 2026-04-15 10:58 | 6.19691 | -51.76524 | 10535 ft | 352 kts | 210° |
| 2026-04-15 10:59 | 6.17601 | -51.77853 | 10845 ft | 358 kts | 209° |
| 2026-04-15 10:59 | 6.15484 | -51.79205 | 11259 ft | 361 kts | 210° |
| 2026-04-15 10:59 | 6.13352 | -51.80568 | 11594 ft | 367 kts | 209° |
| 2026-04-15 10:59 | 6.11189 | -51.81946 | 12052 ft | 368 kts | 210° |
| 2026-04-15 11:00 | 6.09027 | -51.83324 | 12592 ft | 367 kts | 210° |
| 2026-04-15 11:00 | 6.06862 | -51.84707 | 12854 ft | 373 kts | 210° |
| 2026-04-15 11:00 | 6.04650 | -51.86117 | 12934 ft | 375 kts | 210° |
| 2026-04-15 11:00 | 6.03187 | -51.87050 | 12940 ft | 374 kts | 210° |
| 2026-04-15 11:01 | 6.01003 | -51.88443 | 12940 ft | 372 kts | 210° |
| 2026-04-15 11:01 | 5.98089 | -51.90300 | 12940 ft | 376 kts | 210° |
| 2026-04-15 11:01 | 5.95893 | -51.91698 | 12936 ft | 372 kts | 210° |
| 2026-04-15 11:01 | 5.93708 | -51.93089 | 12936 ft | 373 kts | 210° |
| 2026-04-15 11:02 | 5.92226 | -51.94034 | 12937 ft | 374 kts | 210° |
| 2026-04-15 11:02 | 5.90052 | -51.95418 | 12938 ft | 374 kts | 210° |
| 2026-04-15 11:02 | 5.87861 | -51.96812 | 12936 ft | 371 kts | 210° |
| 2026-04-15 11:02 | 5.85674 | -51.98205 | 12940 ft | 373 kts | 210° |
| 2026-04-15 11:03 | 5.83469 | -51.99611 | 12937 ft | 375 kts | 210° |
| 2026-04-15 11:03 | 5.81276 | -52.01006 | 12933 ft | 372 kts | 210° |
| 2026-04-15 11:03 | 5.79093 | -52.02395 | 12935 ft | 372 kts | 210° |
| 2026-04-15 11:03 | 5.76921 | -52.03780 | 12935 ft | 375 kts | 210° |
| 2026-04-15 11:04 | 5.74727 | -52.05176 | 12931 ft | 372 kts | 210° |
| 2026-04-15 11:04 | 5.72549 | -52.06560 | 12935 ft | 369 kts | 210° |
| 2026-04-15 11:04 | 5.70364 | -52.07951 | 12935 ft | 372 kts | 210° |
| 2026-04-15 11:04 | 5.68164 | -52.09351 | 12932 ft | 373 kts | 210° |
| 2026-04-15 11:05 | 5.65980 | -52.10740 | 12930 ft | 370 kts | 210° |
| 2026-04-15 11:05 | 5.63824 | -52.12112 | 12932 ft | 371 kts | 210° |
| 2026-04-15 11:05 | 5.61635 | -52.13506 | 12929 ft | 373 kts | 210° |
| 2026-04-15 11:05 | 5.59449 | -52.14896 | 12931 ft | 371 kts | 210° |
| 2026-04-15 11:06 | 5.57275 | -52.16278 | 12933 ft | 371 kts | 210° |
| 2026-04-15 11:06 | 5.55082 | -52.17673 | 12935 ft | 374 kts | 210° |
| 2026-04-15 11:06 | 5.52889 | -52.19068 | 12928 ft | 371 kts | 210° |
| 2026-04-15 11:06 | 5.50733 | -52.20438 | 12931 ft | 370 kts | 210° |
| 2026-04-15 11:07 | 5.48550 | -52.21827 | 12927 ft | 372 kts | 210° |
| 2026-04-15 11:07 | 5.46339 | -52.23193 | 12926 ft | 372 kts | 206° |
| 2026-04-15 11:07 | 5.44042 | -52.24401 | 12927 ft | 375 kts | 205° |
| 2026-04-15 11:07 | 5.41726 | -52.25622 | 12781 ft | 376 kts | 205° |
| 2026-04-15 11:08 | 5.39412 | -52.26847 | 12381 ft | 376 kts | 205° |
| 2026-04-15 11:08 | 5.37087 | -52.28080 | 11712 ft | 378 kts | 205° |
| 2026-04-15 11:08 | 5.34772 | -52.29307 | 10817 ft | 383 kts | 205° |
| 2026-04-15 11:08 | 5.32393 | -52.30568 | 10152 ft | 383 kts | 205° |
| 2026-04-15 11:09 | 5.30082 | -52.31797 | 9969 ft | 366 kts | 205° |
| 2026-04-15 11:09 | 5.27906 | -52.32954 | 9815 ft | 349 kts | 206° |
| 2026-04-15 11:09 | 5.25807 | -52.34069 | 9657 ft | 333 kts | 206° |
| 2026-04-15 11:09 | 5.23804 | -52.35135 | 9496 ft | 318 kts | 205° |
| 2026-04-15 11:10 | 5.21890 | -52.36148 | 9239 ft | 306 kts | 205° |
| 2026-04-15 11:10 | 5.20040 | -52.37127 | 8999 ft | 296 kts | 205° |
| 2026-04-15 11:10 | 5.18238 | -52.38081 | 8663 ft | 289 kts | 205° |
| 2026-04-15 11:10 | 5.16480 | -52.39012 | 8332 ft | 282 kts | 205° |
| 2026-04-15 11:11 | 5.14710 | -52.39948 | 8002 ft | 300 kts | 205° |
| 2026-04-15 11:11 | 5.12811 | -52.40948 | 7852 ft | 311 kts | 205° |
| 2026-04-15 11:11 | 5.10907 | -52.41956 | 7803 ft | 305 kts | 205° |
| 2026-04-15 11:11 | 5.09049 | -52.42943 | 7557 ft | 300 kts | 205° |
| 2026-04-15 11:12 | 5.07204 | -52.43921 | 7168 ft | 299 kts | 205° |
| 2026-04-15 11:12 | 5.05388 | -52.44882 | 6801 ft | 297 kts | 205° |
| 2026-04-15 11:12 | 5.03556 | -52.45851 | 6412 ft | 296 kts | 205° |
| 2026-04-15 11:12 | 5.01741 | -52.46813 | 6015 ft | 292 kts | 205° |
| 2026-04-15 11:13 | 4.99958 | -52.47760 | 5402 ft | 287 kts | 205° |
| 2026-04-15 11:13 | 4.98202 | -52.48691 | 4806 ft | 284 kts | 205° |
| 2026-04-15 11:13 | 4.96475 | -52.49607 | 4204 ft | 284 kts | 205° |
| 2026-04-15 11:13 | 4.94762 | -52.50570 | 3720 ft | 277 kts | 207° |
| 2026-04-15 11:14 | 4.93077 | -52.51556 | 3552 ft | 284 kts | 207° |
| 2026-04-15 11:14 | 4.91376 | -52.52552 | 3418 ft | 282 kts | 207° |
| 2026-04-15 11:14 | 4.89675 | -52.53542 | 3088 ft | 281 kts | 207° |
| 2026-04-15 11:14 | 4.88006 | -52.54513 | 2750 ft | 274 kts | 206° |
| 2026-04-15 11:15 | 4.86384 | -52.55451 | 2493 ft | 265 kts | 207° |
| 2026-04-15 11:15 | 4.84823 | -52.56346 | 2202 ft | 260 kts | 206° |
| 2026-04-15 11:15 | 4.83242 | -52.57251 | 2059 ft | 267 kts | 207° |
| 2026-04-15 11:15 | 4.81637 | -52.58125 | 2002 ft | 253 kts | 198° |
| 2026-04-15 11:16 | 4.79988 | -52.58387 | 2019 ft | 230 kts | 169° |
| 2026-04-15 11:16 | 4.78556 | -52.57941 | 2020 ft | 206 kts | 149° |
| 2026-04-15 11:16 | 4.77324 | -52.57282 | 2005 ft | 197 kts | 146° |
| 2026-04-15 11:16 | 4.76171 | -52.56624 | 2001 ft | 187 kts | 146° |
| 2026-04-15 11:17 | 4.75068 | -52.56041 | 2016 ft | 172 kts | 148° |
| 2026-04-15 11:17 | 4.74075 | -52.55405 | 2028 ft | 165 kts | 128° |
| 2026-04-15 11:17 | 4.73657 | -52.54413 | 2020 ft | 152 kts | 89° |
| 2026-04-15 11:17 | 4.73948 | -52.53385 | 2031 ft | 156 kts | 61° |
| 2026-04-15 11:18 | 4.74468 | -52.52438 | 2017 ft | 153 kts | 62° |
| 2026-04-15 11:18 | 4.74968 | -52.51484 | 2016 ft | 154 kts | 63° |
| 2026-04-15 11:18 | 4.75439 | -52.50523 | 2020 ft | 156 kts | 65° |
| 2026-04-15 11:18 | 4.75890 | -52.49544 | 2028 ft | 154 kts | 66° |
| 2026-04-15 11:19 | 4.76327 | -52.48559 | 2023 ft | 155 kts | 67° |
| 2026-04-15 11:19 | 4.76769 | -52.47567 | 2024 ft | 155 kts | 67° |
| 2026-04-15 11:19 | 4.77215 | -52.46574 | 1933 ft | 157 kts | 66° |
| 2026-04-15 11:19 | 4.77664 | -52.45594 | 1726 ft | 153 kts | 65° |
| 2026-04-15 11:20 | 4.78117 | -52.44607 | 1523 ft | 158 kts | 67° |
| 2026-04-15 11:20 | 4.78569 | -52.43616 | 1317 ft | 156 kts | 66° |
| 2026-04-15 11:20 | 4.79018 | -52.42632 | 1115 ft | 158 kts | 66° |
| 2026-04-15 11:20 | 4.79477 | -52.41646 | 916 ft | 156 kts | 65° |
| 2026-04-15 11:21 | 4.79934 | -52.40638 | 688 ft | 159 kts | 66° |
| 2026-04-15 11:21 | 4.80376 | -52.39640 | 517 ft | 158 kts | 67° |
| 2026-04-15 11:21 | 4.80845 | -52.38599 | 327 ft | 164 kts | 66° |
| 2026-04-15 11:21 | 4.81331 | -52.37564 | 94 ft | 160 kts | 65° |
| 2026-04-15 11:22 | 4.81748 | -52.36662 | 34 ft | 110 kts | 65° |
| 2026-04-15 11:22 | 4.81951 | -52.36219 | 33 ft | 43 kts | 65° |
| 2026-04-15 11:22 | 4.82046 | -52.36012 | 34 ft | 19 kts | 59° |
| 2026-04-15 11:22 | 4.82145 | -52.35997 | 34 ft | 15 kts | 325° |
| 2026-04-15 11:23 | 4.82182 | -52.36101 | 34 ft | 15 kts | 259° |
| 2026-04-15 11:23 | 4.82152 | -52.36172 | 34 ft | 10 kts | 244° |
| 2026-04-15 11:23 | 4.82116 | -52.36235 | 34 ft | 0 kts | 239° |
| 2026-04-15 11:23 | 4.82113 | -52.36255 | 34 ft | 7 kts | 264° |
| 2026-04-15 11:24 | 4.82165 | -52.36296 | 34 ft | 10 kts | 332° |
| 2026-04-15 11:24 | 4.82179 | -52.36303 | 34 ft | 0 kts | 334° |